Bruno Silva

Scout - Ceará
19 Aug 2027
Donnerstag
Verarbeitung

Persönlichkeit

Anpassungsfähigkeit (8) Ehrgeiz (12) Kontroverse (10) Loyalität (6) Druck (18) Professionalität (14) Fairness (10) Temperament (5)

Profil

Trainerstil Demokratisch
Lizenz Nationale A
Entschlossenheit 12
Menschenführung 8
Motivation 4
Disziplin 11
Arbeitszufriedenheit
100%
Ermüdung
0%
Rolle Scout
Gehalt 91.9K p/W
Vertrag 14.03.2028

Leistung

Verhalten Gut
Trainingseffektivität
48%
Spielerentwicklung
35%
Verletzungsprävention
65%
Taktische Umsetzung
35%

Letzte Ereignisse

Nahm an einer Scouting-Besprechung teil jetzt
Nahm an einer Scouting-Besprechung teil 7T her
Empfahl ein Transferziel 7T her
Nahm an einer Scouting-Besprechung teil 7T her
Nahm an einer Scouting-Besprechung teil 14T her
Empfahl ein Transferziel 14T her
Nahm an einer Scouting-Besprechung teil 14T her
Nahm an einer Scouting-Besprechung teil 21T her

Aktuell beobachtet

198
Spieler Verein Status Fähigkeit Vertrauen Beobachtet Zuletzt beobachtet Letzte Stimme
Riquelme Grêmio Aktiv 99 / 111 65% 1 21.06.2027 Befürworten
Mfundo Vilakazi Kaizer Chiefs Aktiv 117 / 123 40% 2 31.05.2027 -
Gal Kranjčič Farense Aktiv 97 / 105 40% 2 31.05.2027 -
Daniel Costa Sporting CP Aktiv 82 / 111 40% 2 31.05.2027 -
Gustavo Ferreira Benfica Aktiv 90 / 88 40% 3 29.05.2027 -
Mateus Mané Manchester United Aktiv 132 / 138 40% 5 29.05.2027 -
Jesús Rodríguez Como Aktiv 147 / 143 40% 2 28.05.2027 -
Riley Owen Trento Aktiv 91 / 111 40% 2 28.05.2027 -
Ilyas Ansah Hull City Aktiv 121 / 136 40% 2 28.05.2027 -
Giorgi Chakvetadze Watford Aktiv 120 / 127 40% 1 28.05.2027 -
Lwanda Mbanjwa Maritzburg United Aktiv 82 / 101 40% 3 26.05.2027 -
Tiziano Dornell Danubio Aktiv 122 / 124 40% 2 26.05.2027 -
Adama Goïta Remo Stars Aktiv 95 / 98 40% 2 26.05.2027 -
Milan van Ewijk Mansfield Town Aktiv 122 / 134 40% 1 26.05.2027 -
Alagie Wally Veres Aktiv 91 / 88 40% 2 24.05.2027 -
Sidiki Chérif Coventry City Aktiv 117 / 131 40% 1 24.05.2027 -
Rayan Bournemouth Aktiv 129 / 143 40% 6 23.05.2027 -
Luke Baartman ES Mostaganem Aktiv 107 / 105 40% 4 23.05.2027 -
Markus Jensen Nacional Aktiv 113 / 106 40% 3 23.05.2027 -
Derensili Sanches Fernandes Huddersfield Town Aktiv 125 / 126 40% 2 22.05.2027 -
Kasey McAteer Ipswich Town Aktiv 130 / 130 40% 1 22.05.2027 -
Jack Rudoni Coventry City Aktiv 131 / 131 40% 1 21.05.2027 -
Ethan Williams Peterborough United Aktiv 119 / 124 40% 1 20.05.2027 -
Jason Knight Bristol City Aktiv 129 / 134 40% 1 20.05.2027 -
David Turnbull Cardiff City Aktiv 114 / 116 40% 1 19.05.2027 -
Michael Noumon Heart of Lions Aktiv 86 / 93 40% 4 18.05.2027 -
Shea Charles Southampton Aktiv 133 / 139 40% 1 18.05.2027 -
Finn Azaz Southampton Aktiv 123 / 126 40% 1 18.05.2027 -
Matvii Ponomarenko Dynamo Kyiv Aktiv 115 / 119 40% 5 17.05.2027 -
Florentino Luís Ipswich Town Aktiv 148 / 143 40% 1 15.05.2027 -
Million Manhoef Stoke City Aktiv 133 / 134 40% 1 14.05.2027 -
Ronald Swansea City Aktiv 117 / 135 40% 1 14.05.2027 -
Joel McGregor Swindon Town Aktiv 80 / 92 40% 1 13.05.2027 -
Max Bird Birmingham Aktiv 129 / 133 40% 1 13.05.2027 -
Richard Koné Queens Park Rangers Aktiv 117 / 122 40% 1 13.05.2027 -
Leo Castledine Middlesbrough Aktiv 131 / 127 40% 7 11.05.2027 -
Thulani Erasmus Platinum Stars Aktiv 99 / 113 40% 4 11.05.2027 -
Amaury Morales Pumas UNAM Aktiv 122 / 113 40% 3 10.05.2027 -
Martim Cunha Porto Aktiv 112 / 113 40% 2 10.05.2027 -
Ibrahim Maza Bayer Leverkusen Aktiv 144 / 154 40% 2 10.05.2027 -
Kauã Elias Anderlecht Aktiv 127 / 141 40% 2 08.05.2027 -
Maren Kefas Plateau United Aktiv 77 / 94 40% 1 08.05.2027 -
Juan David Delgado Chernihiv Aktiv 93 / 94 40% 1 07.05.2027 -
Jair Monteiro Feirense Aktiv 87 / 94 40% 2 04.05.2027 -
Darlvin Yeboah Bechem United Aktiv 85 / 83 40% 3 04.05.2027 -
Iwan Morgan Grimsby Town Aktiv 118 / 121 40% 4 04.05.2027 -
Baba N'Diaye Chelyabinsk Aktiv 72 / 86 40% 2 03.05.2027 -
Dilan Godoy Vélez Aktiv 118 / 113 40% 1 03.05.2027 -
Paris Maghoma Norwich City Aktiv 112 / 117 40% 1 03.05.2027 -
Juan Mosquera Sheffield Wednesday Aktiv 134 / 131 40% 1 03.05.2027 -
João Capucho Benfica Aktiv 107 / 103 40% 1 02.05.2027 -
Francisco Fernandes Porto Aktiv 93 / 98 40% 1 29.04.2027 -
Othmane Maamma Watford Aktiv 132 / 133 40% 1 29.04.2027 -
Christ Inao Oulaï Fiorentina Aktiv 145 / 146 40% 1 26.04.2027 -
Rodrigo Mora AS Roma Aktiv 147 / 136 40% 1 26.04.2027 -
Jayden Addai Como Aktiv 144 / 128 40% 1 26.04.2027 -
Lévy Néne FC Nordsjaelland Aktiv 120 / 117 40% 1 22.04.2027 -
Rayan Demirci Porto Aktiv 83 / 86 40% 2 21.04.2027 -
Tomás Peixoto Porto Aktiv 84 / 96 40% 2 21.04.2027 -
Rafael Camacho Sporting CP Aktiv 106 / 99 40% 1 20.04.2027 -
Kelian Baruti Liamba Estoril Praia Aktiv 105 / 101 40% 2 18.04.2027 -
Hazeem Bakre Crawley Town Aktiv 77 / 86 40% 3 18.04.2027 -
Jonás Luna Santa Clara Aktiv 110 / 125 40% 1 18.04.2027 -
Umar Abubakar Famalicao Aktiv 100 / 85 40% 1 17.04.2027 -
Víctor Guzmán Sporting CP Aktiv 94 / 94 40% 5 15.04.2027 -
Cédric Nuozzi Alverca Aktiv 110 / 111 40% 3 15.04.2027 -
David Kalokoh Ajax Aktiv 113 / 113 40% 2 13.04.2027 -
Gianluca Prestianni Benfica Aktiv 145 / 146 40% 1 13.04.2027 -
Stevan Manuel Benfica Aktiv 101 / 110 40% 1 13.04.2027 -
Vasco Santos Oliveirense Aktiv 94 / 85 40% 2 11.04.2027 -
Lorenzo De Leo Renate Aktiv 88 / 106 40% 3 10.04.2027 -
Fletcher Holman Swindon Town Aktiv 75 / 89 40% 3 08.04.2027 -
Anestis Mythou PAOK Aktiv 82 / 104 40% 1 08.04.2027 -
Ben Ahmed Kohili Paradou Aktiv 99 / 115 40% 2 06.04.2027 -
Arthur Maron São Paulo Aktiv 99 / 105 40% 1 05.04.2027 -
Zaïd BafdilI Sporting CP Verhandlung 83 / 105 40% 1 03.04.2027 -
Caleb Yirenkyi Coventry City Aktiv 125 / 136 40% 1 03.04.2027 -
Will Lankshear Middlesbrough Aktiv 137 / 124 40% 5 30.03.2027 -
Federico Serra Arezzo Aktiv 85 / 87 40% 1 28.03.2027 -
Salvador Blopá Casa Pia Aktiv 116 / 115 40% 2 24.03.2027 -
Toni Tamarit Alverca Aktiv 120 / 115 40% 1 24.03.2027 -
Gabriel Melo Dugopolje Aktiv 94 / 84 40% 1 24.03.2027 -
João Abreu Porto Aktiv 82 / 99 40% 1 23.03.2027 -
André Miranda Porto Aktiv 86 / 104 40% 2 22.03.2027 -
Jayden Luker Barnet Aktiv 86 / 101 40% 1 22.03.2027 -
Chineme Chinonso Ikorodu City Aktiv 82 / 101 40% 1 21.03.2027 -
Deivid Washington RC Strasbourg Aktiv 129 / 116 40% 2 16.03.2027 -
Afonso Assis Moreirense Aktiv 98 / 110 40% 1 11.03.2027 -
Zack Nelson Bromley Aktiv 105 / 109 40% 1 09.03.2027 -
Miloš Jovičić Zabbar St. Patrick Aktiv 79 / 92 40% 1 05.03.2027 -
Dom Ballard Leyton Orient Aktiv 108 / 122 40% 4 04.03.2027 -
Manuel Kissanga Fortuna Mfou Aktiv 73 / 99 40% 1 02.03.2027 -
Mathis Jangeal Famalicao Aktiv 87 / 115 40% 2 01.03.2027 -
Dilan Neves Benfica Aktiv 69 / 82 40% 1 01.03.2027 -
Oumar Camara Braga Aktiv 134 / 140 40% 1 28.02.2027 -
Léo Jacó Santa Clara Aktiv 106 / 103 40% 1 26.02.2027 -
Rocco Vata Watford Aktiv 115 / 130 40% 2 11.02.2027 -
Leandro Martins Benfica Aktiv 85 / 100 40% 1 01.02.2027 -
Agustín Fernández NK Zavrc Aktiv 91 / 100 40% 1 08.01.2027 -
Bruno Gomes Internacional Aktiv 125 / 130 40% 1 08.12.2026 -
Bright Arrey-Mbi Braga Aktiv 135 / 139 40% 1 08.12.2026 -
Santi García Gil Vicente Aktiv 143 / 128 40% 2 30.11.2026 Mehr Infos nötig
Francisco Moura Lusitânia Lourosa Aktiv 143 / 130 40% 1 30.11.2026 -
Luis Vázquez Birmingham Aktiv 141 / 124 40% 3 29.11.2026 -
Ianis Stoica Estrela da Amadora Aktiv 114 / 123 40% 1 28.11.2026 -
André Lacximicant Estoril Praia Aktiv 111 / 112 40% 1 28.11.2026 -
Figueiredo Alverca Aktiv 133 / 121 40% 2 27.11.2026 -
Vinícius Lopes Santa Clara Aktiv 119 / 121 40% 1 27.11.2026 -
Martín Tejón Maritimo Aktiv 128 / 116 40% 1 27.11.2026 -
Alfonso Trezza Arouca Aktiv 110 / 116 40% 2 26.11.2026 -
Reda Khadra Qarabag Aktiv 125 / 129 40% 2 26.11.2026 -
Alejandro Melo Cibalia Aktiv 129 / 118 40% 1 25.11.2026 -
Bertrand Traoré Sunderland Aktiv 148 / 126 40% 1 25.11.2026 Mehr Infos nötig
Tom Cannon Sheffield United Aktiv 137 / 125 40% 3 23.11.2026 -
Duk Atlas Aktiv 112 / 105 40% 1 22.11.2026 -
Dawda Camara Alverca Aktiv 124 / 114 40% 2 20.11.2026 -
Armando Broja Burnley Aktiv 130 / 129 40% 1 19.11.2026 -
Roberto Fernández Braga Aktiv 130 / 144 40% 1 18.11.2026 -
Carlos Vinícius Grêmio Aktiv 139 / 130 40% 4 16.11.2026 -
André Silva Tondela Aktiv 117 / 123 40% 3 16.11.2026 -
Eddie Nketiah Crystal Palace Aktiv 147 / 146 40% 1 15.11.2026 -
Breel Embolo Atlanta United FC Aktiv 132 / 147 40% 1 14.11.2026 -
Ramiro Ruiz Rodríguez Atlético Tucumán Aktiv 120 / 118 40% 2 13.11.2026 -
Vitinho Internacional Aktiv 123 / 129 40% 1 11.11.2026 -
Beni Mukendi Vitoria Guimaraes Aktiv 136 / 118 40% 1 10.11.2026 -
Dinis Pinto Moreirense Aktiv 120 / 122 40% 1 09.11.2026 -
Sead Hakšabanović Malmo FF Aktiv 128 / 109 40% 1 09.11.2026 -
Romelu Castagne KV Oostende Aktiv 131 / 137 40% 1 08.11.2026 -
Claudio Spinelli Vasco da Gama Aktiv 136 / 127 40% 1 08.11.2026 -
Luis Mina Vizela Aktiv 90 / 114 40% 1 05.11.2026 -
Samuel Lucero Defensa y Justicia Aktiv 122 / 116 40% 1 05.11.2026 -
Lewis Morgan SuperSport United Aktiv 117 / 129 40% 1 02.11.2026 -
Jalen Blesa Rio Ave Aktiv 123 / 123 40% 3 30.10.2026 -
Mésaque Djú Portimonense Aktiv 110 / 100 40% 1 29.10.2026 -
Antonio Sanabria Internacional Aktiv 119 / 131 40% 1 28.10.2026 -
Isidro Pitta Bragantino Aktiv 122 / 126 40% 1 27.10.2026 -
Adnan Courtois KV Oostende Aktiv 127 / 140 40% 2 26.10.2026 -
Telmo Arcanjo Vitoria Guimaraes Aktiv 116 / 125 40% 1 24.10.2026 -
Tamble Monteiro Rio Ave Aktiv 115 / 112 40% 1 22.10.2026 -
Lohann Doucet Vitoria Guimaraes Aktiv 110 / 120 40% 1 21.10.2026 -
Manuel Ospina Cortulua Aktiv 118 / 120 40% 1 21.10.2026 -
Vangelis Pavlidis Twente Aktiv 167 / 146 40% 3 20.10.2026 -
Rodrigo Castillo Fluminense Aktiv 118 / 127 40% 2 20.10.2026 -
Martim Fernandes Porto Aktiv 138 / 138 40% 1 20.10.2026 -
Bernardo Lima Porto Aktiv 90 / 112 40% 1 20.10.2026 -
Gonçalo Oliveira Benfica Aktiv 104 / 104 40% 1 19.10.2026 -
Tiago Freitas Benfica Aktiv 95 / 120 40% 1 19.10.2026 -
Zian Flemming Ipswich Town Aktiv 131 / 124 40% 1 14.10.2026 -
Mohammed Bouldini Académico de Viseu Aktiv 112 / 118 40% 1 14.10.2026 -
Yanis Begraoui Estoril Praia Aktiv 128 / 136 40% 1 13.10.2026 -
Adrián Butzke Maritimo Aktiv 102 / 90 40% 2 12.10.2026 -
Alexis Cuello San Lorenzo Aktiv 121 / 123 40% 1 08.10.2026 -
Matías Fernández Independiente Rivadavia Aktiv 120 / 115 40% 1 05.10.2026 -
Juninho Pumas UNAM Aktiv 133 / 120 40% 1 05.10.2026 -
Lassina Traoré Shakhtar Aktiv 115 / 128 40% 1 05.10.2026 -
André Clovis Leiria Aktiv 133 / 125 40% 1 04.10.2026 -
Rodrigo Zalazar Sporting CP Aktiv 139 / 139 40% 1 03.10.2026 -
Ole Pohlmann Rio Ave Aktiv 118 / 121 40% 1 03.10.2026 -
Negueba Mirassol Aktiv 132 / 128 40% 3 01.10.2026 -
José Manuel López Palmeiras Aktiv 137 / 130 40% 2 30.09.2026 -
Facundo Colidio Vasco da Gama Aktiv 139 / 129 40% 1 27.09.2026 -
Josh Sargent Toronto FC Aktiv 135 / 124 40% 1 27.09.2026 -
Paulo Moreira Farense Aktiv 134 / 132 40% 1 26.09.2026 -
Juan María Alcedo Torreense Aktiv 104 / 109 40% 1 26.09.2026 -
Kévin Denkey FC Cincinnati Aktiv 125 / 131 40% 1 26.09.2026 -
Héctor Hernández Gil Vicente Aktiv 137 / 126 40% 1 22.09.2026 -
Samuel Anakwe Remo Stars Aktiv 79 / 102 40% 1 20.09.2026 -
Angel Bastunov Vizela Aktiv 119 / 114 40% 1 19.09.2026 -
Mateo Cassierra Atlético Mineiro Aktiv 137 / 126 40% 1 16.09.2026 -
Jhonatan Candia Barracas Central Aktiv 125 / 125 40% 1 16.09.2026 -
Álvaro Barreal Santos Aktiv 136 / 125 40% 1 16.09.2026 -
Henrique Araújo Casa Pia Aktiv 116 / 118 40% 1 13.09.2026 -
Agustín Paz Progreso Aktiv 117 / 114 40% 1 11.09.2026 -
Wessam Abou Ali Columbus Crew Aktiv 116 / 130 40% 1 10.09.2026 -
Dominic Calvert-Lewin Leeds United Aktiv 138 / 142 40% 2 09.09.2026 -
Zeki Amdouni Burnley Aktiv 120 / 136 40% 1 09.09.2026 -
Jovan Milošević Braga Aktiv 127 / 133 40% 1 09.09.2026 -
Bénie Traoré New York City Aktiv 138 / 122 40% 1 08.09.2026 -
Alexandre Duville-Parsemain Moreirense Aktiv 98 / 114 40% 1 08.09.2026 -
Martín Ojeda Orlando City Aktiv 123 / 128 40% 1 05.09.2026 -
Morgan Guilavogui Real Salt Lake Aktiv 130 / 132 40% 1 05.09.2026 -
Jordan Morris Seattle Sounders Aktiv 113 / 119 40% 1 04.09.2026 -
Gustavo Silva Vitoria Guimaraes Aktiv 112 / 128 40% 1 02.09.2026 -
Alexander Aravena Portland Timbers Aktiv 115 / 133 40% 1 02.09.2026 -
Hugo Cuypers Monterrey Aktiv 142 / 124 40% 1 31.08.2026 -
Petar Musa Adana Demirspor Aktiv 143 / 133 40% 1 27.08.2026 -
Jesus Ferreira Seattle Sounders Aktiv 133 / 119 40% 1 26.08.2026 -
Fotis Ioannidis Rio Ave Aktiv 131 / 131 40% 1 12.08.2026 -
Luis Amarilla Cerro Porteno Aktiv 131 / 127 40% 1 09.08.2026 -
Raul Steffens AVS Aktiv 107 / 108 40% 1 07.08.2026 -
Adriel Torreense Aktiv 121 / 108 40% 1 07.08.2026 -
Facundo Cambeses Racing Club Aktiv 125 / 125 40% 1 06.08.2026 -
Lucas Paes Torreense Aktiv 98 / 90 40% 1 05.08.2026 -
Ionuţ Radu Celta Aktiv 151 / 139 40% 1 05.08.2026 -
Tomás Conechny Racing Club Aktiv 134 / 121 40% 1 04.08.2026 -
Andriy Lunin Real Madrid Aktiv 163 / 149 40% 1 02.08.2026 -
Christian Joel Sánchez Leiria Aktiv 113 / 104 40% 1 02.08.2026 -
Zeno Debast Sporting CP Aktiv 135 / 132 40% 1 01.08.2026 -